Blue Bay — V2CE6 — position and weather

sailwx.info

Track history (hours):
 
Tides and Currents Weather Stations Pressure Air Temp Water Temp Dewpoint Dewpoint Depression Visibility Wind Speed Wind Dir Waves Ship Positions

Blue Bay

Last reported at 2015-Mar-05 07:33 UTC. Time now 2015-Mar-05 08:08 UTC.
Position N 51°39' W 008°32'.

Length 89 m; draft 3.5 m.

Type: Cargo ship. MMSI: 304519000.

Date/timePositionNaut miles runAvg speedWind from/ knotsBaromVisibWave heightAir tempDewpointWater temp
2015-Mar-05 07:33N 51°39' W 008°32'7 6.5
2015-Mar-05 06:33N 51°33' W 008°36'0 0.2
2015-Mar-05 05:33N 51°33' W 008°36'9 9.4
2015-Mar-05 04:33N 51°33' W 008°21'10 9.6
2015-Mar-05 03:33N 51°32' W 008°05'10 9.8
2015-Mar-05 02:33N 51°32' W 007°50'1010.1
2015-Mar-05 01:33N 51°31' W 007°33'1110.4
2015-Mar-05 00:29N 51°31' W 007°15'148 9.9
2015-Mar-04 09:33N 51°21' W 003°19'1212.2
2015-Mar-04 08:33N 51°26' W 003°02'1312.9
2015-Mar-04 07:34N 51°32' W 002°44'1010.2
2015-Mar-04 06:34N 51°40' W 002°34'4 4.1
2015-Mar-04 05:32N 51°43' W 002°29'0 0.1
2015-Mar-04 04:25N 51°43' W 002°29'0 0.0
2015-Mar-04 03:31N 51°43' W 002°29'0 0.0
2015-Mar-04 02:33N 51°43' W 002°29'0 0.0
2015-Mar-04 01:27N 51°43' W 002°29'0 0.0
2015-Mar-04 00:29N 51°43' W 002°29'0 0.0
2015-Mar-03 23:33N 51°43' W 002°29'0 0.0
2015-Mar-03 22:31N 51°43' W 002°29'0 0.0
2015-Mar-03 20:33N 51°43' W 002°29'0 0.0
2015-Mar-03 19:27N 51°43' W 002°29'0 0.0
2015-Mar-03 18:33N 51°43' W 002°29'0 0.0
2015-Mar-03 17:33N 51°43' W 002°29'0 0.0
2015-Mar-03 16:32N 51°43' W 002°29'0 0.0
2015-Mar-03 15:32N 51°43' W 002°29'0 0.0
2015-Mar-03 14:33N 51°43' W 002°29'0 0.0
2015-Mar-03 13:33N 51°43' W 002°29'0 0.0
2015-Mar-03 12:32N 51°43' W 002°29'0 0.0
2015-Mar-03 11:31N 51°43' W 002°29'0 0.0
2015-Mar-03 10:09N 51°43' W 002°29'0 0.0
2015-Mar-03 09:33N 51°43' W 002°29'0 0.0
2015-Mar-03 08:33N 51°43' W 002°29'0 0.0
2015-Mar-03 07:34N 51°43' W 002°29'0 0.0
2015-Mar-03 06:15N 51°43' W 002°29'0 0.0
2015-Mar-03 05:34N 51°43' W 002°29'0 0.0
2015-Mar-03 04:30N 51°43' W 002°29'0 0.0
2015-Mar-03 03:29N 51°43' W 002°29'0 0.0
2015-Mar-03 02:23N 51°43' W 002°29'0 0.0
2015-Mar-03 01:32N 51°43' W 002°29'0 0.0
2015-Mar-03 00:32N 51°43' W 002°29'0 0.0
2015-Mar-02 23:11N 51°43' W 002°29'0 0.0
2015-Mar-02 22:33N 51°43' W 002°29'0 0.0
2015-Mar-02 21:30N 51°43' W 002°29'0 0.0
2015-Mar-02 20:32N 51°43' W 002°29'0 0.0
2015-Mar-02 19:34N 51°43' W 002°29'0 0.0
2015-Mar-02 18:31N 51°43' W 002°29'0 0.0
2015-Mar-02 17:33N 51°43' W 002°29'0 0.0
2015-Mar-02 16:24N 51°43' W 002°29'0 0.0
2015-Mar-02 15:33N 51°43' W 002°29'0 0.0
2015-Mar-02 14:19N 51°43' W 002°29'0 0.0
2015-Mar-02 13:31N 51°43' W 002°29'0 0.0
2015-Mar-02 12:32N 51°43' W 002°29'0 0.0
2015-Mar-02 10:27N 51°43' W 002°29'0 0.0
2015-Mar-02 09:20N 51°43' W 002°29'0 0.0
2015-Mar-02 08:07N 51°43' W 002°29'0 0.0
2015-Mar-02 07:24N 51°43' W 002°29'0 0.2
2015-Mar-02 06:34N 51°43' W 002°29'0 0.0
2015-Mar-02 05:31N 51°43' W 002°29'3 3.2
2015-Mar-02 04:34N 51°41' W 002°32'10 9.8
2015-Mar-02 03:33N 51°33' W 002°42'1111.3
2015-Mar-02 02:33N 51°27' W 002°58'1211.9
2015-Mar-02 01:34N 51°22' W 003°15'8 8.3
2015-Mar-02 00:34N 51°15' W 003°21'3 2.6
2015-Mar-01 23:27N 51°12' W 003°22'0 0.0
2015-Mar-01 22:30N 51°12' W 003°22'0 0.2
2015-Mar-01 21:27N 51°12' W 003°22'0 0.0
2015-Mar-01 20:30N 51°12' W 003°22'0 0.0
2015-Mar-01 18:33N 51°12' W 003°22'0 0.2
2015-Mar-01 17:33N 51°12' W 003°22'0 0.1
2015-Mar-01 16:33N 51°12' W 003°22'0 0.0
2015-Mar-01 14:18N 51°12' W 003°22'0 0.0
2015-Mar-01 13:06N 51°12' W 003°22'0 0.0
2015-Mar-01 12:21N 51°12' W 003°22'0 0.0
2015-Mar-01 11:24N 51°12' W 003°22'0 0.0
2015-Mar-01 10:24N 51°12' W 003°22'0 0.1
2015-Mar-01 09:12N 51°12' W 003°22'0 0.1
2015-Mar-01 08:30N 51°12' W 003°22'0 0.0
2015-Mar-01 07:27N 51°12' W 003°22'0 0.0
2015-Mar-01 06:33N 51°12' W 003°22'0 0.0
2015-Mar-01 05:30N 51°12' W 003°22'0 0.2
2015-Mar-01 04:33N 51°12' W 003°22'0 0.0
2015-Mar-01 03:33N 51°12' W 003°22'0 0.0
2015-Mar-01 02:21N 51°12' W 003°22'0 0.0
2015-Mar-01 01:21N 51°12' W 003°22'0 0.0
2015-Mar-01 00:33N 51°12' W 003°22'0 0.0
2015-Feb-28 23:21N 51°12' W 003°22'0 0.0
2015-Feb-28 22:24N 51°12' W 003°22'0 0.0
2015-Feb-28 21:27N 51°12' W 003°22'0 0.1
2015-Feb-28 20:24N 51°12' W 003°22'0 0.1
2015-Feb-28 19:24N 51°12' W 003°22'0 0.0
2015-Feb-28 18:15N 51°12' W 003°22'0 0.1
2015-Feb-28 17:30N 51°12' W 003°22'0 0.1
2015-Feb-28 16:03N 51°12' W 003°22'0 0.1
2015-Feb-28 15:33N 51°12' W 003°22'0 0.1
2015-Feb-28 14:18N 51°12' W 003°22'0 0.1
2015-Feb-28 13:33N 51°12' W 003°22'70 9.7
2015-Feb-28 06:18N 50°47' W 005°06'7 9.8
2015-Feb-28 05:33N 50°42' W 005°15'10 9.9
2015-Feb-28 04:33N 50°35' W 005°27'10 9.9
2015-Feb-28 03:33N 50°29' W 005°38'  
Track history (hours):
 
Tides and Currents Weather Stations Pressure Air Temp Water Temp Dewpoint Dewpoint Depression Visibility Wind Speed Wind Dir Waves Ship Positions

Blue Bay

Last reported at 2015-Mar-05 07:33 UTC. Time now 2015-Mar-05 08:08 UTC.
Position N 51°39' W 008°32'.

Length 89 m; draft 3.5 m.

Type: Cargo ship. MMSI: 304519000.

Date/timePositionNaut miles runAvg speedWind from/ knotsBaromVisibWave heightAir tempDewpointWater temp
2015-Mar-05 07:33N 51°39' W 008°32'7 6.5
2015-Mar-05 06:33N 51°33' W 008°36'0 0.2
2015-Mar-05 05:33N 51°33' W 008°36'9 9.4
2015-Mar-05 04:33N 51°33' W 008°21'10 9.6
2015-Mar-05 03:33N 51°32' W 008°05'10 9.8
2015-Mar-05 02:33N 51°32' W 007°50'1010.1
2015-Mar-05 01:33N 51°31' W 007°33'1110.4
2015-Mar-05 00:29N 51°31' W 007°15'148 9.9
2015-Mar-04 09:33N 51°21' W 003°19'1212.2
2015-Mar-04 08:33N 51°26' W 003°02'1312.9
2015-Mar-04 07:34N 51°32' W 002°44'1010.2
2015-Mar-04 06:34N 51°40' W 002°34'4 4.1
2015-Mar-04 05:32N 51°43' W 002°29'0 0.1
2015-Mar-04 04:25N 51°43' W 002°29'0 0.0
2015-Mar-04 03:31N 51°43' W 002°29'0 0.0
2015-Mar-04 02:33N 51°43' W 002°29'0 0.0
2015-Mar-04 01:27N 51°43' W 002°29'0 0.0
2015-Mar-04 00:29N 51°43' W 002°29'0 0.0
2015-Mar-03 23:33N 51°43' W 002°29'0 0.0
2015-Mar-03 22:31N 51°43' W 002°29'0 0.0
2015-Mar-03 20:33N 51°43' W 002°29'0 0.0
2015-Mar-03 19:27N 51°43' W 002°29'0 0.0
2015-Mar-03 18:33N 51°43' W 002°29'0 0.0
2015-Mar-03 17:33N 51°43' W 002°29'0 0.0
2015-Mar-03 16:32N 51°43' W 002°29'0 0.0
2015-Mar-03 15:32N 51°43' W 002°29'0 0.0
2015-Mar-03 14:33N 51°43' W 002°29'0 0.0
2015-Mar-03 13:33N 51°43' W 002°29'0 0.0
2015-Mar-03 12:32N 51°43' W 002°29'0 0.0
2015-Mar-03 11:31N 51°43' W 002°29'0 0.0
2015-Mar-03 10:09N 51°43' W 002°29'0 0.0
2015-Mar-03 09:33N 51°43' W 002°29'0 0.0
2015-Mar-03 08:33N 51°43' W 002°29'0 0.0
2015-Mar-03 07:34N 51°43' W 002°29'0 0.0
2015-Mar-03 06:15N 51°43' W 002°29'0 0.0
2015-Mar-03 05:34N 51°43' W 002°29'0 0.0
2015-Mar-03 04:30N 51°43' W 002°29'0 0.0
2015-Mar-03 03:29N 51°43' W 002°29'0 0.0
2015-Mar-03 02:23N 51°43' W 002°29'0 0.0
2015-Mar-03 01:32N 51°43' W 002°29'0 0.0
2015-Mar-03 00:32N 51°43' W 002°29'0 0.0
2015-Mar-02 23:11N 51°43' W 002°29'0 0.0
2015-Mar-02 22:33N 51°43' W 002°29'0 0.0
2015-Mar-02 21:30N 51°43' W 002°29'0 0.0
2015-Mar-02 20:32N 51°43' W 002°29'0 0.0
2015-Mar-02 19:34N 51°43' W 002°29'0 0.0
2015-Mar-02 18:31N 51°43' W 002°29'0 0.0
2015-Mar-02 17:33N 51°43' W 002°29'0 0.0
2015-Mar-02 16:24N 51°43' W 002°29'0 0.0
2015-Mar-02 15:33N 51°43' W 002°29'0 0.0
2015-Mar-02 14:19N 51°43' W 002°29'0 0.0
2015-Mar-02 13:31N 51°43' W 002°29'0 0.0
2015-Mar-02 12:32N 51°43' W 002°29'0 0.0
2015-Mar-02 10:27N 51°43' W 002°29'0 0.0
2015-Mar-02 09:20N 51°43' W 002°29'0 0.0
2015-Mar-02 08:07N 51°43' W 002°29'0 0.0
2015-Mar-02 07:24N 51°43' W 002°29'0 0.2
2015-Mar-02 06:34N 51°43' W 002°29'0 0.0
2015-Mar-02 05:31N 51°43' W 002°29'3 3.2
2015-Mar-02 04:34N 51°41' W 002°32'10 9.8
2015-Mar-02 03:33N 51°33' W 002°42'1111.3
2015-Mar-02 02:33N 51°27' W 002°58'1211.9
2015-Mar-02 01:34N 51°22' W 003°15'8 8.3
2015-Mar-02 00:34N 51°15' W 003°21'3 2.6
2015-Mar-01 23:27N 51°12' W 003°22'0 0.0
2015-Mar-01 22:30N 51°12' W 003°22'0 0.2
2015-Mar-01 21:27N 51°12' W 003°22'0 0.0
2015-Mar-01 20:30N 51°12' W 003°22'0 0.0
2015-Mar-01 18:33N 51°12' W 003°22'0 0.2
2015-Mar-01 17:33N 51°12' W 003°22'0 0.1
2015-Mar-01 16:33N 51°12' W 003°22'0 0.0
2015-Mar-01 14:18N 51°12' W 003°22'0 0.0
2015-Mar-01 13:06N 51°12' W 003°22'0 0.0
2015-Mar-01 12:21N 51°12' W 003°22'0 0.0
2015-Mar-01 11:24N 51°12' W 003°22'0 0.0
2015-Mar-01 10:24N 51°12' W 003°22'0 0.1
2015-Mar-01 09:12N 51°12' W 003°22'0 0.1
2015-Mar-01 08:30N 51°12' W 003°22'0 0.0
2015-Mar-01 07:27N 51°12' W 003°22'0 0.0
2015-Mar-01 06:33N 51°12' W 003°22'0 0.0
2015-Mar-01 05:30N 51°12' W 003°22'0 0.2
2015-Mar-01 04:33N 51°12' W 003°22'0 0.0
2015-Mar-01 03:33N 51°12' W 003°22'0 0.0
2015-Mar-01 02:21N 51°12' W 003°22'0 0.0
2015-Mar-01 01:21N 51°12' W 003°22'0 0.0
2015-Mar-01 00:33N 51°12' W 003°22'0 0.0
2015-Feb-28 23:21N 51°12' W 003°22'0 0.0
2015-Feb-28 22:24N 51°12' W 003°22'0 0.0
2015-Feb-28 21:27N 51°12' W 003°22'0 0.1
2015-Feb-28 20:24N 51°12' W 003°22'0 0.1
2015-Feb-28 19:24N 51°12' W 003°22'0 0.0
2015-Feb-28 18:15N 51°12' W 003°22'0 0.1
2015-Feb-28 17:30N 51°12' W 003°22'0 0.1
2015-Feb-28 16:03N 51°12' W 003°22'0 0.1
2015-Feb-28 15:33N 51°12' W 003°22'0 0.1
2015-Feb-28 14:18N 51°12' W 003°22'0 0.1
2015-Feb-28 13:33N 51°12' W 003°22'70 9.7
2015-Feb-28 06:18N 50°47' W 005°06'7 9.8
2015-Feb-28 05:33N 50°42' W 005°15'10 9.9
2015-Feb-28 04:33N 50°35' W 005°27'10 9.9
2015-Feb-28 03:33N 50°29' W 005°38'  

Dump ship's entire track history